Time;durP1;ratioP1;P1;durP2;ratioP2;P2;SDS_P1;SDS_P2;PMS_P1;PMS_P2;Temp;Humidity;BMP_temperature;BMP_pressure;BME280_temperature;BME280_humidity;BME280_pressure;Samples;Min_cycle;Max_cycle;Signal;HPM_P1;HPM_P2
2023/11/22 00:00:14;;;;;;;1.23;0.20;;;;;;;;;;343964;28;2862;-62
2023/11/22 00:00:25;;;;;;;0.70;0.10;;;;;;;;;;344046;28;1351;-62
2023/11/22 00:00:36;;;;;;;0.70;0.10;;;;;;;;;;346587;28;2791;-61
2023/11/22 00:00:47;;;;;;;0.57;0.10;;;;;;;;;;344058;28;2925;-61
2023/11/22 00:00:59;;;;;;;0.90;0.20;;;;;;;;;;343450;28;2726;-62
2023/11/22 00:01:11;;;;;;;1.27;0.20;;;;;;;;;;342675;28;1330;-61
2023/11/22 00:01:22;;;;;;;1.50;0.30;;;;;;;;;;344687;28;2647;-62
2023/11/22 00:01:33;;;;;;;1.55;0.30;;;;;;;;;;345338;28;2873;-61
2023/11/22 00:01:49;;;;;;;1.05;0.28;;;;;;;;;;345995;28;2602;-62
2023/11/22 00:02:00;;;;;;;0.60;0.30;;;;;;;;;;345399;28;1385;-61
2023/11/22 00:02:11;;;;;;;0.65;0.40;;;;;;;;;;346360;28;2641;-61
2023/11/22 00:02:22;;;;;;;0.80;0.40;;;;;;;;;;346823;28;2935;-59
2023/11/22 00:02:33;;;;;;;1.13;0.22;;;;;;;;;;344355;28;2639;-62
2023/11/22 00:02:44;;;;;;;1.02;0.20;;;;;;;;;;345368;28;1666;-62
2023/11/22 00:02:55;;;;;;;0.80;0.20;;;;;;;;;;343900;28;1511;-62
2023/11/22 00:03:06;;;;;;;0.85;0.10;;;;;;;;;;343769;28;2990;-60
2023/11/22 00:03:18;;;;;;;1.00;0.10;;;;;;;;;;346127;28;2761;-62
2023/11/22 00:03:30;;;;;;;1.35;0.17;;;;;;;;;;343866;28;1924;-60
2023/11/22 00:03:41;;;;;;;1.00;0.20;;;;;;;;;;345171;28;1308;-62
2023/11/22 00:03:52;;;;;;;1.20;0.20;;;;;;;;;;345270;28;2853;-62
2023/11/22 00:04:03;;;;;;;1.20;0.20;;;;;;;;;;341242;28;2853;-61
2023/11/22 00:04:14;;;;;;;1.52;0.22;;;;;;;;;;342049;28;2908;-60
2023/11/22 00:04:25;;;;;;;1.45;0.20;;;;;;;;;;343760;28;1366;-61
2023/11/22 00:04:36;;;;;;;0.90;0.28;;;;;;;;;;343878;28;2692;-61
2023/11/22 00:04:47;;;;;;;1.00;0.28;;;;;;;;;;343531;28;2757;-61
2023/11/22 00:04:58;;;;;;;1.17;0.30;;;;;;;;;;343718;28;2706;-61
2023/11/22 00:05:11;;;;;;;1.15;0.25;;;;;;;;;;342661;28;1572;-61
2023/11/22 00:05:22;;;;;;;0.90;0.20;;;;;;;;;;343420;28;1543;-61
2023/11/22 00:05:33;;;;;;;0.70;0.10;;;;;;;;;;346441;28;2765;-61
2023/11/22 00:05:44;;;;;;;0.60;0.20;;;;;;;;;;346341;28;2407;-61
2023/11/22 00:05:55;;;;;;;0.80;0.20;;;;;;;;;;345123;28;2784;-61
2023/11/22 00:06:07;;;;;;;1.20;0.20;;;;;;;;;;345328;28;1754;-61
2023/11/22 00:06:20;;;;;;;0.93;0.20;;;;;;;;;;344382;28;2830;-61
2023/11/22 00:06:31;;;;;;;1.27;0.30;;;;;;;;;;344157;28;2966;-61
2023/11/22 00:06:42;;;;;;;1.27;0.32;;;;;;;;;;343414;28;2841;-60
2023/11/22 00:06:53;;;;;;;0.95;0.25;;;;;;;;;;344850;28;1552;-60
2023/11/22 00:07:04;;;;;;;0.68;0.20;;;;;;;;;;346626;28;2751;-61
2023/11/22 00:07:16;;;;;;;0.82;0.30;;;;;;;;;;346314;28;2611;-59
2023/11/22 00:07:30;;;;;;;1.40;0.30;;;;;;;;;;345487;28;2824;-60
2023/11/22 00:07:41;;;;;;;1.95;0.30;;;;;;;;;;345289;28;959;-60
2023/11/22 00:07:52;;;;;;;1.92;0.28;;;;;;;;;;343801;28;2578;-59
2023/11/22 00:08:03;;;;;;;1.45;0.20;;;;;;;;;;341530;28;2785;-60
2023/11/22 00:08:14;;;;;;;1.38;0.30;;;;;;;;;;343902;28;2860;-60
2023/11/22 00:08:26;;;;;;;1.02;0.30;;;;;;;;;;345213;28;1436;-59
2023/11/22 00:08:37;;;;;;;1.42;0.30;;;;;;;;;;346476;28;1515;-60
2023/11/22 00:08:48;;;;;;;1.02;0.20;;;;;;;;;;345642;28;2443;-61
2023/11/22 00:08:59;;;;;;;0.43;0.20;;;;;;;;;;342676;28;2954;-61
2023/11/22 00:09:10;;;;;;;0.40;0.10;;;;;;;;;;343508;28;2851;-60
2023/11/22 00:09:22;;;;;;;0.68;0.20;;;;;;;;;;343971;28;1096;-61
2023/11/22 00:09:34;;;;;;;0.70;0.20;;;;;;;;;;343446;28;2860;-61
2023/11/22 00:09:47;;;;;;;0.60;0.20;;;;;;;;;;343962;28;2721;-61
2023/11/22 00:09:58;;;;;;;0.25;0.10;;;;;;;;;;344545;28;2731;-61
2023/11/22 00:10:09;;;;;;;0.60;0.10;;;;;;;;;;348229;28;1405;-62
2023/11/22 00:10:20;;;;;;;0.82;0.15;;;;;;;;;;347740;28;2662;-61
2023/11/22 00:10:31;;;;;;;1.00;0.20;;;;;;;;;;347579;28;2720;-60
2023/11/22 00:10:42;;;;;;;0.80;0.17;;;;;;;;;;343843;28;2783;-61
2023/11/22 00:10:53;;;;;;;0.52;0.10;;;;;;;;;;346683;28;1349;-60
2023/11/22 00:11:05;;;;;;;0.70;0.20;;;;;;;;;;345412;28;1314;-61
2023/11/22 00:11:16;;;;;;;1.00;0.20;;;;;;;;;;344098;28;2793;-59
2023/11/22 00:11:27;;;;;;;1.27;0.20;;;;;;;;;;345393;28;2979;-63
2023/11/22 00:11:38;;;;;;;1.17;0.10;;;;;;;;;;343576;28;2685;-63
2023/11/22 00:11:50;;;;;;;0.80;0.10;;;;;;;;;;343973;28;1538;-59
2023/11/22 00:12:01;;;;;;;0.75;0.15;;;;;;;;;;344929;28;2527;-61
2023/11/22 00:12:12;;;;;;;1.20;0.30;;;;;;;;;;344524;28;2874;-60
2023/11/22 00:12:24;;;;;;;1.50;0.30;;;;;;;;;;346590;28;2813;-61
2023/11/22 00:12:38;;;;;;;1.05;0.20;;;;;;;;;;344006;28;1538;-61
2023/11/22 00:12:50;;;;;;;0.50;0.20;;;;;;;;;;343221;28;2315;-61
2023/11/22 00:13:01;;;;;;;0.50;0.20;;;;;;;;;;343990;28;2985;-61
2023/11/22 00:13:12;;;;;;;0.77;0.20;;;;;;;;;;344193;28;2834;-61
2023/11/22 00:13:23;;;;;;;1.25;0.20;;;;;;;;;;346715;28;1567;-62
2023/11/22 00:13:34;;;;;;;1.35;0.15;;;;;;;;;;346503;28;1347;-61
2023/11/22 00:13:45;;;;;;;0.70;0.10;;;;;;;;;;342662;28;2844;-62
2023/11/22 00:13:56;;;;;;;0.38;0.10;;;;;;;;;;344824;28;2835;-62
2023/11/22 00:14:07;;;;;;;0.98;0.20;;;;;;;;;;345244;28;2884;-62
2023/11/22 00:14:18;;;;;;;1.17;0.20;;;;;;;;;;345407;28;1628;-62
2023/11/22 00:14:30;;;;;;;1.63;0.20;;;;;;;;;;346571;28;2862;-57
2023/11/22 00:14:41;;;;;;;1.50;0.20;;;;;;;;;;346199;28;2786;-61
2023/11/22 00:14:52;;;;;;;2.60;0.30;;;;;;;;;;347297;28;2659;-61
2023/11/22 00:15:05;;;;;;;1.75;0.30;;;;;;;;;;344039;28;1854;-61
2023/11/22 00:15:18;;;;;;;1.77;0.30;;;;;;;;;;346008;28;2545;-62
2023/11/22 00:15:29;;;;;;;1.38;0.20;;;;;;;;;;345108;28;2854;-61
2023/11/22 00:15:40;;;;;;;1.58;0.20;;;;;;;;;;343876;28;2744;-58
2023/11/22 00:15:51;;;;;;;1.02;0.10;;;;;;;;;;343844;28;1737;-61
2023/11/22 00:16:02;;;;;;;0.60;0.10;;;;;;;;;;344696;28;1835;-61
2023/11/22 00:16:14;;;;;;;0.50;0.10;;;;;;;;;;344623;28;2796;-60
2023/11/22 00:16:25;;;;;;;1.40;0.30;;;;;;;;;;342486;28;1476;-62
2023/11/22 00:16:38;;;;;;;1.48;0.40;;;;;;;;;;345184;28;2862;-62
2023/11/22 00:16:49;;;;;;;0.77;0.20;;;;;;;;;;345133;28;1506;-61
2023/11/22 00:17:02;;;;;;;0.73;0.20;;;;;;;;;;346429;28;2618;-61
2023/11/22 00:17:13;;;;;;;0.63;0.15;;;;;;;;;;344569;28;2772;-61
2023/11/22 00:17:24;;;;;;;0.55;0.20;;;;;;;;;;345232;28;2802;-62
2023/11/22 00:17:36;;;;;;;0.38;0.20;;;;;;;;;;342675;28;1478;-62
2023/11/22 00:17:47;;;;;;;0.90;0.20;;;;;;;;;;343799;28;2676;-62
2023/11/22 00:18:03;;;;;;;0.95;0.20;;;;;;;;;;343532;28;2811;-62
2023/11/22 00:18:14;;;;;;;0.35;0.10;;;;;;;;;;345137;28;2849;-62
2023/11/22 00:18:26;;;;;;;0.55;0.10;;;;;;;;;;345233;28;1282;-62
2023/11/22 00:18:40;;;;;;;0.80;0.20;;;;;;;;;;343162;28;2769;-62
2023/11/22 00:18:51;;;;;;;0.82;0.20;;;;;;;;;;345938;28;2881;-61
2023/11/22 00:19:02;;;;;;;0.93;0.25;;;;;;;;;;344051;28;2836;-61
2023/11/22 00:19:17;;;;;;;0.75;0.20;;;;;;;;;;345020;28;1481;-62
2023/11/22 00:19:28;;;;;;;0.82;0.17;;;;;;;;;;343402;28;2628;-62
2023/11/22 00:19:40;;;;;;;0.80;0.20;;;;;;;;;;343723;28;2799;-62
2023/11/22 00:19:51;;;;;;;0.70;0.20;;;;;;;;;;346233;28;2796;-62
2023/11/22 00:20:05;;;;;;;0.70;0.13;;;;;;;;;;342466;28;1349;-62
2023/11/22 00:20:16;;;;;;;1.30;0.30;;;;;;;;;;345133;28;2758;-62
2023/11/22 00:20:28;;;;;;;1.90;0.32;;;;;;;;;;346255;28;2923;-62
2023/11/22 00:20:39;;;;;;;1.75;0.32;;;;;;;;;;345700;28;2828;-62
2023/11/22 00:20:50;;;;;;;1.33;0.25;;;;;;;;;;343953;28;918;-58
2023/11/22 00:21:01;;;;;;;1.08;0.20;;;;;;;;;;341479;28;2763;-61
2023/11/22 00:21:13;;;;;;;0.75;0.20;;;;;;;;;;344406;28;2962;-61
2023/11/22 00:21:24;;;;;;;0.85;0.20;;;;;;;;;;345063;28;2559;-61
2023/11/22 00:21:35;;;;;;;0.60;0.20;;;;;;;;;;343959;28;1537;-62
2023/11/22 00:21:46;;;;;;;0.60;0.20;;;;;;;;;;342439;28;1650;-62
2023/11/22 00:21:58;;;;;;;0.63;0.20;;;;;;;;;;341203;28;2884;-61
2023/11/22 00:22:13;;;;;;;0.75;0.20;;;;;;;;;;342462;28;2809;-62
2023/11/22 00:22:24;;;;;;;0.73;0.13;;;;;;;;;;342594;28;1430;-61
2023/11/22 00:22:35;;;;;;;0.47;0.10;;;;;;;;;;344017;28;1285;-62
2023/11/22 00:22:47;;;;;;;0.30;0.10;;;;;;;;;;343533;28;2960;-61
2023/11/22 00:22:58;;;;;;;0.30;0.10;;;;;;;;;;345069;28;2836;-61
2023/11/22 00:23:09;;;;;;;1.20;0.20;;;;;;;;;;344996;28;2906;-61
2023/11/22 00:23:20;;;;;;;1.20;0.20;;;;;;;;;;343719;28;1367;-57
2023/11/22 00:23:32;;;;;;;1.40;0.20;;;;;;;;;;343195;28;2801;-60
2023/11/22 00:23:43;;;;;;;1.40;0.20;;;;;;;;;;340591;29;2856;-60
2023/11/22 00:23:54;;;;;;;1.27;0.20;;;;;;;;;;343159;28;2861;-60
2023/11/22 00:24:06;;;;;;;0.20;0.10;;;;;;;;;;343937;28;1349;-60
2023/11/22 00:24:18;;;;;;;0.30;0.10;;;;;;;;;;343967;28;2756;-59
2023/11/22 00:24:30;;;;;;;0.30;0.10;;;;;;;;;;346498;28;2826;-61
2023/11/22 00:24:41;;;;;;;0.55;0.20;;;;;;;;;;345443;28;2896;-59
2023/11/22 00:24:52;;;;;;;0.73;0.20;;;;;;;;;;346501;28;1503;-58
2023/11/22 00:25:04;;;;;;;1.20;0.30;;;;;;;;;;343996;28;1274;-61
2023/11/22 00:25:15;;;;;;;1.30;0.20;;;;;;;;;;343963;28;2912;-61
2023/11/22 00:25:26;;;;;;;1.10;0.20;;;;;;;;;;344273;28;2760;-61
2023/11/22 00:25:37;;;;;;;0.80;0.20;;;;;;;;;;345059;28;2655;-61
2023/11/22 00:25:48;;;;;;;0.38;0.10;;;;;;;;;;345239;28;1585;-61
2023/11/22 00:25:59;;;;;;;0.32;0.10;;;;;;;;;;343890;28;2769;-61
2023/11/22 00:26:11;;;;;;;0.90;0.20;;;;;;;;;;344980;28;2913;-58
2023/11/22 00:26:22;;;;;;;1.30;0.30;;;;;;;;;;342655;28;1021;-60
2023/11/22 00:26:33;;;;;;;1.38;0.28;;;;;;;;;;341026;28;1386;-61
2023/11/22 00:26:44;;;;;;;1.20;0.20;;;;;;;;;;343936;28;1166;-61
2023/11/22 00:26:55;;;;;;;0.95;0.20;;;;;;;;;;344864;28;2859;-61
2023/11/22 00:27:06;;;;;;;0.68;0.20;;;;;;;;;;346340;28;2798;-60
2023/11/22 00:27:17;;;;;;;1.05;0.20;;;;;;;;;;343978;28;1412;-60
2023/11/22 00:27:32;;;;;;;0.93;0.10;;;;;;;;;;344039;28;1764;-61
2023/11/22 00:27:43;;;;;;;0.70;0.20;;;;;;;;;;345035;28;2915;-60
2023/11/22 00:27:55;;;;;;;0.55;0.20;;;;;;;;;;343441;28;2768;-61
2023/11/22 00:28:06;;;;;;;0.57;0.10;;;;;;;;;;343921;28;1345;-59
2023/11/22 00:28:17;;;;;;;0.68;0.20;;;;;;;;;;345287;28;1407;-61
2023/11/22 00:28:28;;;;;;;0.60;0.20;;;;;;;;;;345209;28;2838;-61
2023/11/22 00:28:39;;;;;;;1.50;0.25;;;;;;;;;;344547;28;3096;-61
2023/11/22 00:28:53;;;;;;;1.25;0.20;;;;;;;;;;345162;28;2821;-57
2023/11/22 00:29:05;;;;;;;1.20;0.20;;;;;;;;;;341385;28;1098;-62
2023/11/22 00:29:16;;;;;;;0.63;0.20;;;;;;;;;;341184;29;2776;-62
2023/11/22 00:29:27;;;;;;;0.95;0.20;;;;;;;;;;343584;28;2966;-61
2023/11/22 00:29:38;;;;;;;1.13;0.28;;;;;;;;;;343538;28;2288;-62
2023/11/22 00:29:49;;;;;;;1.27;0.20;;;;;;;;;;343798;28;1298;-61
2023/11/22 00:30:00;;;;;;;1.20;0.20;;;;;;;;;;342608;28;1322;-60
2023/11/22 00:30:12;;;;;;;1.10;0.15;;;;;;;;;;345014;28;2611;-59
2023/11/22 00:30:23;;;;;;;0.80;0.10;;;;;;;;;;342551;28;2832;-61
2023/11/22 00:30:34;;;;;;;0.52;0.20;;;;;;;;;;345172;28;2822;-61
2023/11/22 00:30:45;;;;;;;0.80;0.20;;;;;;;;;;345282;28;1408;-62
2023/11/22 00:30:56;;;;;;;1.00;0.20;;;;;;;;;;343660;28;2853;-62
2023/11/22 00:31:07;;;;;;;1.00;0.20;;;;;;;;;;343703;28;2654;-61
2023/11/22 00:31:19;;;;;;;0.90;0.20;;;;;;;;;;344619;28;2855;-60
2023/11/22 00:31:30;;;;;;;0.60;0.20;;;;;;;;;;342497;28;1293;-60
2023/11/22 00:31:41;;;;;;;0.50;0.20;;;;;;;;;;342554;28;2597;-58
2023/11/22 00:31:52;;;;;;;0.68;0.20;;;;;;;;;;344993;28;2879;-61
2023/11/22 00:32:04;;;;;;;1.00;0.20;;;;;;;;;;343640;28;2735;-59
2023/11/22 00:32:15;;;;;;;0.90;0.20;;;;;;;;;;343985;28;1425;-61
2023/11/22 00:32:26;;;;;;;1.45;0.20;;;;;;;;;;343974;28;1021;-61
2023/11/22 00:32:37;;;;;;;1.38;0.28;;;;;;;;;;343794;28;2977;-61
2023/11/22 00:32:49;;;;;;;1.83;0.40;;;;;;;;;;344266;28;2862;-61
2023/11/22 00:33:00;;;;;;;1.50;0.40;;;;;;;;;;346559;28;2709;-62
2023/11/22 00:33:11;;;;;;;0.98;0.30;;;;;;;;;;347936;28;1345;-62
2023/11/22 00:33:22;;;;;;;0.57;0.20;;;;;;;;;;346689;28;2663;-62
2023/11/22 00:33:34;;;;;;;1.00;0.10;;;;;;;;;;346181;28;2834;-62
2023/11/22 00:33:46;;;;;;;1.02;0.10;;;;;;;;;;343527;28;2793;-62
2023/11/22 00:33:57;;;;;;;1.70;0.20;;;;;;;;;;342595;28;1373;-62
2023/11/22 00:34:08;;;;;;;1.23;0.30;;;;;;;;;;345251;28;1801;-61
2023/11/22 00:34:19;;;;;;;1.65;0.25;;;;;;;;;;346465;28;2877;-60
2023/11/22 00:34:30;;;;;;;1.52;0.30;;;;;;;;;;346296;28;2830;-61
2023/11/22 00:34:41;;;;;;;1.80;0.20;;;;;;;;;;346545;28;1325;-60
2023/11/22 00:34:52;;;;;;;1.33;0.22;;;;;;;;;;348042;28;1648;-60
2023/11/22 00:35:04;;;;;;;1.48;0.30;;;;;;;;;;345114;28;2814;-61
2023/11/22 00:35:15;;;;;;;1.30;0.38;;;;;;;;;;343566;28;2924;-61
2023/11/22 00:35:26;;;;;;;1.10;0.30;;;;;;;;;;342522;28;2885;-62
2023/11/22 00:35:38;;;;;;;1.35;0.40;;;;;;;;;;345291;28;1065;-61
2023/11/22 00:35:50;;;;;;;1.02;0.30;;;;;;;;;;344886;28;2440;-61
2023/11/22 00:36:04;;;;;;;1.70;0.35;;;;;;;;;;345010;28;2617;-60
2023/11/22 00:36:16;;;;;;;2.00;0.30;;;;;;;;;;343145;28;2508;-61
2023/11/22 00:36:27;;;;;;;1.83;0.20;;;;;;;;;;343931;28;1526;-61
2023/11/22 00:36:38;;;;;;;0.90;0.15;;;;;;;;;;343840;28;1274;-60
2023/11/22 00:36:50;;;;;;;0.80;0.20;;;;;;;;;;342111;28;2733;-60
2023/11/22 00:37:01;;;;;;;0.50;0.15;;;;;;;;;;342724;28;2758;-59
2023/11/22 00:37:13;;;;;;;0.47;0.20;;;;;;;;;;343984;28;1278;-59
2023/11/22 00:37:24;;;;;;;0.80;0.28;;;;;;;;;;345336;28;1518;-59
2023/11/22 00:37:35;;;;;;;1.30;0.30;;;;;;;;;;345121;28;2904;-60
2023/11/22 00:37:46;;;;;;;1.08;0.20;;;;;;;;;;342377;28;2658;-60
2023/11/22 00:37:58;;;;;;;0.63;0.20;;;;;;;;;;343718;28;2330;-60
2023/11/22 00:38:09;;;;;;;0.80;0.30;;;;;;;;;;345348;28;1133;-60
2023/11/22 00:38:20;;;;;;;1.42;0.30;;;;;;;;;;345677;28;2707;-60
2023/11/22 00:38:31;;;;;;;1.70;0.35;;;;;;;;;;347726;28;3057;-60
2023/11/22 00:38:42;;;;;;;1.55;0.38;;;;;;;;;;343817;28;2662;-59
2023/11/22 00:38:53;;;;;;;1.48;0.38;;;;;;;;;;343843;28;1552;-60
2023/11/22 00:39:05;;;;;;;1.10;0.20;;;;;;;;;;345380;28;1392;-61
2023/11/22 00:39:16;;;;;;;1.20;0.30;;;;;;;;;;342488;28;2841;-59
2023/11/22 00:39:27;;;;;;;0.75;0.20;;;;;;;;;;344876;28;2882;-60
2023/11/22 00:39:38;;;;;;;0.90;0.20;;;;;;;;;;343338;28;1509;-61
2023/11/22 00:39:49;;;;;;;0.85;0.20;;;;;;;;;;341282;28;1302;-60
2023/11/22 00:40:10;;;;;;;0.85;0.20;;;;;;;;;;343823;28;2686;-61
2023/11/22 00:40:21;;;;;;;1.40;0.30;;;;;;;;;;343843;28;2898;-61
2023/11/22 00:40:32;;;;;;;1.08;0.30;;;;;;;;;;343975;28;1329;-60
2023/11/22 00:40:43;;;;;;;0.75;0.28;;;;;;;;;;343869;28;1489;-62
2023/11/22 00:40:54;;;;;;;0.75;0.20;;;;;;;;;;341181;28;2809;-60
2023/11/22 00:41:07;;;;;;;0.75;0.30;;;;;;;;;;344534;28;2781;-61
2023/11/22 00:41:18;;;;;;;1.27;0.25;;;;;;;;;;342591;28;1335;-62
2023/11/22 00:41:33;;;;;;;1.20;0.20;;;;;;;;;;343974;28;1401;-62
2023/11/22 00:41:44;;;;;;;1.00;0.30;;;;;;;;;;344832;28;2990;-59
2023/11/22 00:41:55;;;;;;;1.20;0.30;;;;;;;;;;342165;28;2937;-61
2023/11/22 00:42:07;;;;;;;0.95;0.20;;;;;;;;;;341290;29;1311;-63
2023/11/22 00:42:20;;;;;;;1.02;0.25;;;;;;;;;;339998;29;1290;-61
2023/11/22 00:42:31;;;;;;;1.02;0.30;;;;;;;;;;340904;29;2805;-61
2023/11/22 00:42:43;;;;;;;2.13;0.30;;;;;;;;;;340657;29;2983;-58
2023/11/22 00:42:54;;;;;;;3.53;0.25;;;;;;;;;;343804;28;2771;-62
2023/11/22 00:43:05;;;;;;;3.80;0.20;;;;;;;;;;346731;28;1521;-62
2023/11/22 00:43:16;;;;;;;2.35;0.20;;;;;;;;;;344621;28;2780;-61
2023/11/22 00:43:28;;;;;;;1.50;0.25;;;;;;;;;;343996;28;2945;-63
2023/11/22 00:43:39;;;;;;;1.17;0.30;;;;;;;;;;344301;28;2808;-62
2023/11/22 00:43:50;;;;;;;0.95;0.28;;;;;;;;;;342557;28;1443;-62
2023/11/22 00:44:01;;;;;;;1.02;0.20;;;;;;;;;;343996;28;1333;-61
2023/11/22 00:44:14;;;;;;;0.90;0.20;;;;;;;;;;343549;28;2736;-61
2023/11/22 00:44:25;;;;;;;0.85;0.25;;;;;;;;;;344537;28;2661;-62
2023/11/22 00:44:37;;;;;;;0.70;0.20;;;;;;;;;;343978;28;1285;-62
2023/11/22 00:44:48;;;;;;;0.88;0.28;;;;;;;;;;343973;28;1326;-61
2023/11/22 00:44:59;;;;;;;0.77;0.28;;;;;;;;;;343531;28;2746;-63
2023/11/22 00:45:11;;;;;;;0.85;0.30;;;;;;;;;;345391;28;2895;-62
2023/11/22 00:45:22;;;;;;;0.70;0.20;;;;;;;;;;345125;28;2886;-58
2023/11/22 00:45:33;;;;;;;1.70;0.20;;;;;;;;;;345289;28;1310;-61
2023/11/22 00:45:45;;;;;;;1.98;0.30;;;;;;;;;;343719;28;2402;-61
2023/11/22 00:45:57;;;;;;;1.85;0.28;;;;;;;;;;341247;28;2919;-61
2023/11/22 00:46:08;;;;;;;1.30;0.30;;;;;;;;;;339997;29;2730;-62
2023/11/22 00:46:19;;;;;;;1.10;0.28;;;;;;;;;;342226;28;1302;-62
2023/11/22 00:46:30;;;;;;;0.90;0.20;;;;;;;;;;345335;28;1283;-62
2023/11/22 00:46:42;;;;;;;1.00;0.20;;;;;;;;;;343727;28;2956;-61
2023/11/22 00:46:53;;;;;;;1.00;0.20;;;;;;;;;;346276;28;2811;-62
2023/11/22 00:47:04;;;;;;;1.13;0.25;;;;;;;;;;345263;28;1463;-62
2023/11/22 00:47:16;;;;;;;1.02;0.30;;;;;;;;;;342601;28;1452;-62
2023/11/22 00:47:27;;;;;;;0.90;0.30;;;;;;;;;;345141;28;2909;-62
2023/11/22 00:47:38;;;;;;;0.80;0.30;;;;;;;;;;344431;28;2957;-62
2023/11/22 00:47:52;;;;;;;0.40;0.20;;;;;;;;;;345208;28;2780;-62
2023/11/22 00:48:04;;;;;;;0.40;0.20;;;;;;;;;;343886;28;1556;-61
2023/11/22 00:48:15;;;;;;;0.80;0.20;;;;;;;;;;344416;28;2785;-62
2023/11/22 00:48:26;;;;;;;0.80;0.20;;;;;;;;;;342625;28;2935;-62
2023/11/22 00:48:37;;;;;;;0.80;0.20;;;;;;;;;;343169;28;2798;-60
2023/11/22 00:48:50;;;;;;;0.50;0.20;;;;;;;;;;343881;28;1512;-62
2023/11/22 00:49:01;;;;;;;0.60;0.20;;;;;;;;;;346152;28;2931;-61
2023/11/22 00:49:12;;;;;;;0.63;0.20;;;;;;;;;;344760;28;2683;-58
2023/11/22 00:49:24;;;;;;;0.85;0.20;;;;;;;;;;344828;28;2810;-60
2023/11/22 00:49:35;;;;;;;1.30;0.30;;;;;;;;;;344013;28;1528;-61
2023/11/22 00:49:46;;;;;;;1.58;0.20;;;;;;;;;;345257;28;1423;-61
2023/11/22 00:49:58;;;;;;;1.95;0.10;;;;;;;;;;343967;28;2679;-61
2023/11/22 00:50:09;;;;;;;1.27;0.10;;;;;;;;;;343801;28;2938;-62
2023/11/22 00:50:20;;;;;;;0.93;0.13;;;;;;;;;;347928;28;2856;-62
2023/11/22 00:50:31;;;;;;;2.83;0.25;;;;;;;;;;345264;28;1331;-62
2023/11/22 00:50:43;;;;;;;2.83;0.30;;;;;;;;;;345097;28;2772;-60
2023/11/22 00:50:54;;;;;;;2.85;0.30;;;;;;;;;;344779;28;2675;-61
2023/11/22 00:51:08;;;;;;;1.13;0.30;;;;;;;;;;345199;28;2810;-61
2023/11/22 00:51:19;;;;;;;1.13;0.30;;;;;;;;;;345188;28;1470;-62
2023/11/22 00:51:31;;;;;;;1.45;0.30;;;;;;;;;;347498;28;2744;-61
2023/11/22 00:51:42;;;;;;;1.55;0.30;;;;;;;;;;345221;28;2937;-61
2023/11/22 00:51:53;;;;;;;1.55;0.30;;;;;;;;;;344231;28;2761;-61
2023/11/22 00:52:06;;;;;;;0.73;0.20;;;;;;;;;;346564;28;1539;-62
2023/11/22 00:52:18;;;;;;;1.10;0.10;;;;;;;;;;343809;28;2791;-61
2023/11/22 00:52:29;;;;;;;1.05;0.15;;;;;;;;;;343195;28;2601;-62
2023/11/22 00:52:44;;;;;;;0.90;0.17;;;;;;;;;;344926;28;2778;-62
2023/11/22 00:52:55;;;;;;;0.75;0.20;;;;;;;;;;346596;28;1325;-62
2023/11/22 00:53:06;;;;;;;0.98;0.30;;;;;;;;;;346590;28;1281;-61
2023/11/22 00:53:18;;;;;;;0.73;0.30;;;;;;;;;;343900;28;2900;-61
2023/11/22 00:53:29;;;;;;;0.85;0.30;;;;;;;;;;346567;28;2838;-62
2023/11/22 00:53:40;;;;;;;0.77;0.20;;;;;;;;;;343850;28;1301;-62
2023/11/22 00:53:52;;;;;;;0.66;0.30;;;;;;;;;;345278;28;1285;-60
2023/11/22 00:54:03;;;;;;;0.82;0.30;;;;;;;;;;343223;28;2872;-59
2023/11/22 00:54:15;;;;;;;0.80;0.30;;;;;;;;;;345145;28;2599;-61
2023/11/22 00:54:26;;;;;;;0.77;0.20;;;;;;;;;;344729;28;2887;-62
2023/11/22 00:54:37;;;;;;;0.93;0.20;;;;;;;;;;346602;28;1386;-62
2023/11/22 00:54:48;;;;;;;0.90;0.22;;;;;;;;;;346553;28;2772;-62
2023/11/22 00:55:00;;;;;;;0.68;0.20;;;;;;;;;;342137;28;3037;-61
2023/11/22 00:55:11;;;;;;;1.10;0.28;;;;;;;;;;345173;28;2916;-62
2023/11/22 00:55:22;;;;;;;1.10;0.20;;;;;;;;;;346699;28;1440;-62
2023/11/22 00:55:34;;;;;;;0.80;0.20;;;;;;;;;;346576;28;1422;-59
2023/11/22 00:55:45;;;;;;;0.65;0.10;;;;;;;;;;345007;28;2876;-61
2023/11/22 00:55:56;;;;;;;0.90;0.20;;;;;;;;;;344085;28;2781;-61
2023/11/22 00:56:07;;;;;;;0.88;0.22;;;;;;;;;;343673;28;2877;-60
2023/11/22 00:56:18;;;;;;;1.00;0.25;;;;;;;;;;345332;28;1591;-62
2023/11/22 00:56:29;;;;;;;1.48;0.20;;;;;;;;;;346010;28;2807;-62
2023/11/22 00:56:40;;;;;;;1.27;0.20;;;;;;;;;;345399;28;2891;-62
2023/11/22 00:56:51;;;;;;;0.93;0.20;;;;;;;;;;344070;28;2786;-64
2023/11/22 00:57:02;;;;;;;0.60;0.15;;;;;;;;;;342672;28;1340;-61
2023/11/22 00:57:13;;;;;;;0.50;0.10;;;;;;;;;;343799;28;1241;-61
2023/11/22 00:57:26;;;;;;;0.38;0.20;;;;;;;;;;343691;28;2746;-63
2023/11/22 00:57:38;;;;;;;0.57;0.20;;;;;;;;;;343850;28;2825;-60
2023/11/22 00:57:49;;;;;;;1.23;0.30;;;;;;;;;;342613;28;1468;-61
2023/11/22 00:58:04;;;;;;;1.17;0.30;;;;;;;;;;342614;28;1479;-61
2023/11/22 00:58:15;;;;;;;2.03;0.30;;;;;;;;;;342492;28;2852;-61
2023/11/22 00:58:27;;;;;;;1.88;0.30;;;;;;;;;;343300;28;2767;-62
2023/11/22 00:58:38;;;;;;;0.88;0.20;;;;;;;;;;342646;28;1452;-61
2023/11/22 00:58:49;;;;;;;1.30;0.20;;;;;;;;;;344175;28;1360;-61
2023/11/22 00:59:03;;;;;;;1.75;0.30;;;;;;;;;;345302;28;2776;-61
2023/11/22 00:59:14;;;;;;;1.23;0.30;;;;;;;;;;344143;28;2879;-62
2023/11/22 00:59:26;;;;;;;1.10;0.20;;;;;;;;;;345172;28;2876;-61
2023/11/22 00:59:37;;;;;;;1.30;0.20;;;;;;;;;;342459;28;1643;-61
2023/11/22 00:59:48;;;;;;;1.60;0.20;;;;;;;;;;341820;28;2653;-61
2023/11/22 00:59:59;;;;;;;2.05;0.22;;;;;;;;;;343096;28;2923;-62
2023/11/22 01:00:12;;;;;;;1.70;0.20;;;;;;;;;;342377;28;2826;-61
2023/11/22 01:00:23;;;;;;;1.33;0.28;;;;;;;;;;346639;28;1417;-57
2023/11/22 01:00:34;;;;;;;0.90;0.20;;;;;;;;;;343920;28;2831;-60
2023/11/22 01:00:45;;;;;;;1.27;0.40;;;;;;;;;;344788;28;2426;-60
2023/11/22 01:00:57;;;;;;;1.20;0.32;;;;;;;;;;345042;28;2796;-61
2023/11/22 01:01:08;;;;;;;0.95;0.32;;;;;;;;;;345388;28;1314;-62
2023/11/22 01:01:22;;;;;;;0.50;0.10;;;;;;;;;;345274;28;1558;-62
2023/11/22 01:01:33;;;;;;;0.40;0.20;;;;;;;;;;339901;28;2660;-57
2023/11/22 01:01:44;;;;;;;1.85;0.35;;;;;;;;;;344638;28;2855;-59
2023/11/22 01:01:55;;;;;;;1.88;0.30;;;;;;;;;;343753;28;2728;-61
2023/11/22 01:02:08;;;;;;;1.38;0.25;;;;;;;;;;343875;28;1459;-62
2023/11/22 01:02:20;;;;;;;0.95;0.20;;;;;;;;;;344704;28;2558;-61
2023/11/22 01:02:31;;;;;;;1.75;0.40;;;;;;;;;;341957;28;2749;-62
2023/11/22 01:02:42;;;;;;;1.70;0.45;;;;;;;;;;344213;28;2919;-61
2023/11/22 01:02:53;;;;;;;1.75;0.40;;;;;;;;;;342767;28;1413;-59
2023/11/22 01:03:05;;;;;;;1.08;0.30;;;;;;;;;;344212;28;2793;-61
2023/11/22 01:03:16;;;;;;;0.60;0.20;;;;;;;;;;342450;28;2999;-61
2023/11/22 01:03:27;;;;;;;0.98;0.10;;;;;;;;;;340380;29;2757;-61
2023/11/22 01:03:38;;;;;;;1.20;0.10;;;;;;;;;;342817;28;1462;-60
2023/11/22 01:03:49;;;;;;;1.35;0.15;;;;;;;;;;342789;28;1432;-61
2023/11/22 01:04:00;;;;;;;0.80;0.20;;;;;;;;;;342814;28;2863;-62
2023/11/22 01:04:11;;;;;;;0.60;0.20;;;;;;;;;;342122;28;2735;-61
2023/11/22 01:04:22;;;;;;;0.40;0.20;;;;;;;;;;342991;28;2726;-62
2023/11/22 01:04:35;;;;;;;0.60;0.20;;;;;;;;;;344433;28;1482;-58
2023/11/22 01:04:46;;;;;;;0.98;0.20;;;;;;;;;;344760;28;2679;-62
2023/11/22 01:04:57;;;;;;;1.08;0.28;;;;;;;;;;345068;28;2990;-62
2023/11/22 01:05:10;;;;;;;1.80;0.32;;;;;;;;;;343616;28;2896;-62
2023/11/22 01:05:22;;;;;;;1.40;0.30;;;;;;;;;;345432;28;1285;-62
2023/11/22 01:05:33;;;;;;;0.85;0.20;;;;;;;;;;344163;28;2483;-61
2023/11/22 01:05:46;;;;;;;0.60;0.20;;;;;;;;;;345738;28;2933;-61
2023/11/22 01:05:57;;;;;;;1.00;0.20;;;;;;;;;;345190;28;2828;-63
2023/11/22 01:06:09;;;;;;;1.25;0.20;;;;;;;;;;343957;28;1523;-62
2023/11/22 01:06:20;;;;;;;1.92;0.25;;;;;;;;;;346797;28;970;-62
2023/11/22 01:06:32;;;;;;;1.95;0.30;;;;;;;;;;343938;28;2889;-60
2023/11/22 01:06:43;;;;;;;1.50;0.30;;;;;;;;;;345368;28;2663;-60
2023/11/22 01:06:54;;;;;;;1.23;0.40;;;;;;;;;;344262;28;1281;-59
2023/11/22 01:07:05;;;;;;;1.02;0.30;;;;;;;;;;344140;28;1281;-62
2023/11/22 01:07:16;;;;;;;0.75;0.30;;;;;;;;;;343954;28;2477;-60
2023/11/22 01:07:27;;;;;;;0.70;0.20;;;;;;;;;;342325;28;2935;-61
2023/11/22 01:07:38;;;;;;;0.88;0.20;;;;;;;;;;343212;28;2730;-61
2023/11/22 01:07:49;;;;;;;0.62;0.12;;;;;;;;;;346879;28;1337;-62
2023/11/22 01:08:01;;;;;;;0.47;0.10;;;;;;;;;;346404;28;2438;-60
2023/11/22 01:08:13;;;;;;;0.35;0.10;;;;;;;;;;346397;28;2904;-61
2023/11/22 01:08:24;;;;;;;0.43;0.10;;;;;;;;;;345369;28;2642;-62
2023/11/22 01:08:36;;;;;;;0.60;0.20;;;;;;;;;;344610;28;1767;-61
2023/11/22 01:08:48;;;;;;;0.63;0.10;;;;;;;;;;346671;28;1524;-62
2023/11/22 01:09:00;;;;;;;0.80;0.20;;;;;;;;;;345348;28;2770;-62
2023/11/22 01:09:13;;;;;;;0.73;0.20;;;;;;;;;;344975;28;2780;-62
2023/11/22 01:09:24;;;;;;;0.65;0.20;;;;;;;;;;345330;28;1542;-61
2023/11/22 01:09:36;;;;;;;0.70;0.13;;;;;;;;;;342697;28;1442;-61
2023/11/22 01:09:47;;;;;;;0.45;0.10;;;;;;;;;;346380;28;2289;-63
2023/11/22 01:09:58;;;;;;;0.50;0.10;;;;;;;;;;344446;28;2904;-62
2023/11/22 01:10:10;;;;;;;0.50;0.10;;;;;;;;;;344359;28;2856;-62
2023/11/22 01:10:21;;;;;;;0.75;0.20;;;;;;;;;;344630;28;1450;-63
2023/11/22 01:10:32;;;;;;;0.90;0.20;;;;;;;;;;341339;28;2910;-62
2023/11/22 01:10:43;;;;;;;1.85;0.20;;;;;;;;;;342432;28;2868;-61
2023/11/22 01:10:54;;;;;;;1.70;0.20;;;;;;;;;;343916;28;2620;-60
2023/11/22 01:11:05;;;;;;;1.50;0.10;;;;;;;;;;345233;28;1274;-61
2023/11/22 01:11:16;;;;;;;0.25;0.10;;;;;;;;;;345293;28;1422;-62